sensor_id;sensor_type;location;lat;lon;timestamp;P1;durP1;ratioP1;P2;durP2;ratioP2
11498;SDS011;5806;48.748;9.278;2023-02-22T00:00:26;57.93;;;20.67;;
11498;SDS011;5806;48.748;9.278;2023-02-22T00:02:55;35.47;;;19.73;;
11498;SDS011;5806;48.748;9.278;2023-02-22T00:05:26;41.63;;;19.07;;
11498;SDS011;5806;48.748;9.278;2023-02-22T00:07:53;32.23;;;18.97;;
11498;SDS011;5806;48.748;9.278;2023-02-22T00:10:25;38.47;;;17.83;;
11498;SDS011;5806;48.748;9.278;2023-02-22T00:12:53;30.57;;;18.77;;
11498;SDS011;5806;48.748;9.278;2023-02-22T00:15:22;29.40;;;17.63;;
11498;SDS011;5806;48.748;9.278;2023-02-22T00:17:49;35.23;;;17.07;;
11498;SDS011;5806;48.748;9.278;2023-02-22T00:20:16;35.30;;;18.37;;
11498;SDS011;5806;48.748;9.278;2023-02-22T00:22:44;34.13;;;18.63;;
11498;SDS011;5806;48.748;9.278;2023-02-22T00:25:15;48.13;;;19.33;;
11498;SDS011;5806;48.748;9.278;2023-02-22T00:27:42;31.23;;;18.30;;
11498;SDS011;5806;48.748;9.278;2023-02-22T00:30:12;49.30;;;19.80;;
11498;SDS011;5806;48.748;9.278;2023-02-22T00:32:37;42.97;;;20.07;;
11498;SDS011;5806;48.748;9.278;2023-02-22T00:35:03;47.27;;;19.87;;
11498;SDS011;5806;48.748;9.278;2023-02-22T00:37:32;29.60;;;18.27;;
11498;SDS011;5806;48.748;9.278;2023-02-22T00:40:00;69.77;;;20.90;;
11498;SDS011;5806;48.748;9.278;2023-02-22T00:42:26;34.03;;;19.00;;
11498;SDS011;5806;48.748;9.278;2023-02-22T00:44:53;38.33;;;18.70;;
11498;SDS011;5806;48.748;9.278;2023-02-22T00:47:19;36.00;;;19.50;;
11498;SDS011;5806;48.748;9.278;2023-02-22T00:49:46;34.50;;;19.00;;
11498;SDS011;5806;48.748;9.278;2023-02-22T00:52:13;31.63;;;19.33;;
11498;SDS011;5806;48.748;9.278;2023-02-22T00:54:39;45.73;;;18.97;;
11498;SDS011;5806;48.748;9.278;2023-02-22T00:57:06;37.60;;;19.43;;
11498;SDS011;5806;48.748;9.278;2023-02-22T00:59:32;34.63;;;18.63;;
11498;SDS011;5806;48.748;9.278;2023-02-22T01:01:59;34.50;;;17.50;;
11498;SDS011;5806;48.748;9.278;2023-02-22T01:04:25;27.73;;;18.13;;
11498;SDS011;5806;48.748;9.278;2023-02-22T01:06:52;31.20;;;16.77;;
11498;SDS011;5806;48.748;9.278;2023-02-22T01:09:19;31.60;;;17.97;;
11498;SDS011;5806;48.748;9.278;2023-02-22T01:11:46;35.10;;;18.47;;
11498;SDS011;5806;48.748;9.278;2023-02-22T01:14:13;29.97;;;18.10;;
11498;SDS011;5806;48.748;9.278;2023-02-22T01:16:40;34.30;;;17.53;;
11498;SDS011;5806;48.748;9.278;2023-02-22T01:19:06;28.03;;;16.93;;
11498;SDS011;5806;48.748;9.278;2023-02-22T01:21:33;29.67;;;17.20;;
11498;SDS011;5806;48.748;9.278;2023-02-22T01:23:59;26.90;;;15.80;;
11498;SDS011;5806;48.748;9.278;2023-02-22T01:26:26;29.17;;;17.43;;
11498;SDS011;5806;48.748;9.278;2023-02-22T01:28:52;28.37;;;17.90;;
11498;SDS011;5806;48.748;9.278;2023-02-22T01:31:19;41.63;;;18.23;;
11498;SDS011;5806;48.748;9.278;2023-02-22T01:33:45;31.60;;;17.93;;
11498;SDS011;5806;48.748;9.278;2023-02-22T01:36:12;35.97;;;17.37;;
11498;SDS011;5806;48.748;9.278;2023-02-22T01:38:38;42.33;;;17.80;;
11498;SDS011;5806;48.748;9.278;2023-02-22T01:41:05;27.53;;;16.23;;
11498;SDS011;5806;48.748;9.278;2023-02-22T01:43:32;29.70;;;16.23;;
11498;SDS011;5806;48.748;9.278;2023-02-22T01:46:02;32.17;;;16.90;;
11498;SDS011;5806;48.748;9.278;2023-02-22T01:48:46;53.90;;;17.23;;
11498;SDS011;5806;48.748;9.278;2023-02-22T01:51:14;21.47;;;15.40;;
11498;SDS011;5806;48.748;9.278;2023-02-22T01:56:10;35.10;;;15.93;;
11498;SDS011;5806;48.748;9.278;2023-02-22T01:58:37;33.40;;;16.13;;
11498;SDS011;5806;48.748;9.278;2023-02-22T02:01:05;23.80;;;16.20;;
11498;SDS011;5806;48.748;9.278;2023-02-22T02:03:32;22.87;;;14.30;;
11498;SDS011;5806;48.748;9.278;2023-02-22T02:06:01;26.77;;;14.67;;
11498;SDS011;5806;48.748;9.278;2023-02-22T02:08:36;98.30;;;18.50;;
11498;SDS011;5806;48.748;9.278;2023-02-22T02:11:07;67.17;;;18.00;;
11498;SDS011;5806;48.748;9.278;2023-02-22T02:13:30;45.07;;;16.40;;
11498;SDS011;5806;48.748;9.278;2023-02-22T02:15:57;29.33;;;15.07;;
11498;SDS011;5806;48.748;9.278;2023-02-22T02:18:23;63.47;;;18.03;;
11498;SDS011;5806;48.748;9.278;2023-02-22T02:20:53;50.40;;;16.17;;
11498;SDS011;5806;48.748;9.278;2023-02-22T02:33:44;67.57;;;17.93;;
11498;SDS011;5806;48.748;9.278;2023-02-22T02:39:18;31.43;;;14.97;;
11498;SDS011;5806;48.748;9.278;2023-02-22T02:41:35;51.37;;;15.80;;
11498;SDS011;5806;48.748;9.278;2023-02-22T02:44:20;62.87;;;16.77;;
11498;SDS011;5806;48.748;9.278;2023-02-22T02:46:50;35.33;;;14.73;;
11498;SDS011;5806;48.748;9.278;2023-02-22T02:49:19;104.77;;;19.00;;
11498;SDS011;5806;48.748;9.278;2023-02-22T02:51:50;100.00;;;18.13;;
11498;SDS011;5806;48.748;9.278;2023-02-22T02:54:18;87.20;;;18.47;;
11498;SDS011;5806;48.748;9.278;2023-02-22T02:56:45;76.23;;;16.57;;
11498;SDS011;5806;48.748;9.278;2023-02-22T03:07:31;32.43;;;14.03;;
11498;SDS011;5806;48.748;9.278;2023-02-22T03:10:20;22.47;;;12.60;;
11498;SDS011;5806;48.748;9.278;2023-02-22T03:12:51;27.03;;;12.50;;
11498;SDS011;5806;48.748;9.278;2023-02-22T03:15:17;16.07;;;12.20;;
11498;SDS011;5806;48.748;9.278;2023-02-22T03:17:49;60.60;;;13.80;;
11498;SDS011;5806;48.748;9.278;2023-02-22T03:22:44;21.27;;;12.67;;
11498;SDS011;5806;48.748;9.278;2023-02-22T03:25:20;19.73;;;11.73;;
11498;SDS011;5806;48.748;9.278;2023-02-22T03:27:43;24.27;;;11.53;;
11498;SDS011;5806;48.748;9.278;2023-02-22T03:30:12;15.57;;;11.67;;
11498;SDS011;5806;48.748;9.278;2023-02-22T03:32:39;16.13;;;11.60;;
11498;SDS011;5806;48.748;9.278;2023-02-22T03:35:08;49.73;;;12.80;;
11498;SDS011;5806;48.748;9.278;2023-02-22T03:37:36;24.57;;;12.63;;
11498;SDS011;5806;48.748;9.278;2023-02-22T03:40:03;43.33;;;13.57;;
11498;SDS011;5806;48.748;9.278;2023-02-22T03:42:42;37.83;;;12.47;;
11498;SDS011;5806;48.748;9.278;2023-02-22T03:45:08;19.03;;;10.43;;
11498;SDS011;5806;48.748;9.278;2023-02-22T03:47:37;20.97;;;11.13;;
11498;SDS011;5806;48.748;9.278;2023-02-22T03:50:10;31.07;;;12.33;;
11498;SDS011;5806;48.748;9.278;2023-02-22T03:52:33;35.80;;;11.83;;
11498;SDS011;5806;48.748;9.278;2023-02-22T03:55:00;39.93;;;13.07;;
11498;SDS011;5806;48.748;9.278;2023-02-22T03:57:28;22.47;;;11.30;;
11498;SDS011;5806;48.748;9.278;2023-02-22T03:59:56;25.37;;;11.77;;
11498;SDS011;5806;48.748;9.278;2023-02-22T04:02:22;12.23;;;10.73;;
11498;SDS011;5806;48.748;9.278;2023-02-22T04:04:49;15.83;;;9.93;;
11498;SDS011;5806;48.748;9.278;2023-02-22T04:07:15;13.17;;;10.50;;
11498;SDS011;5806;48.748;9.278;2023-02-22T04:09:42;31.37;;;11.63;;
11498;SDS011;5806;48.748;9.278;2023-02-22T04:12:09;21.03;;;11.27;;
11498;SDS011;5806;48.748;9.278;2023-02-22T04:14:35;15.90;;;10.43;;
11498;SDS011;5806;48.748;9.278;2023-02-22T04:17:01;14.37;;;10.27;;
11498;SDS011;5806;48.748;9.278;2023-02-22T04:19:28;15.90;;;10.20;;
11498;SDS011;5806;48.748;9.278;2023-02-22T04:21:55;17.60;;;10.73;;
11498;SDS011;5806;48.748;9.278;2023-02-22T04:24:21;11.53;;;9.70;;
11498;SDS011;5806;48.748;9.278;2023-02-22T04:26:47;11.83;;;9.73;;
11498;SDS011;5806;48.748;9.278;2023-02-22T04:29:14;10.87;;;9.43;;
11498;SDS011;5806;48.748;9.278;2023-02-22T04:31:41;18.13;;;10.03;;
11498;SDS011;5806;48.748;9.278;2023-02-22T04:34:07;19.10;;;10.47;;
11498;SDS011;5806;48.748;9.278;2023-02-22T04:36:34;11.63;;;9.27;;
11498;SDS011;5806;48.748;9.278;2023-02-22T04:39:00;11.37;;;9.20;;
11498;SDS011;5806;48.748;9.278;2023-02-22T04:41:27;15.63;;;10.27;;
11498;SDS011;5806;48.748;9.278;2023-02-22T04:43:53;11.63;;;10.23;;
11498;SDS011;5806;48.748;9.278;2023-02-22T04:46:20;15.07;;;9.50;;
11498;SDS011;5806;48.748;9.278;2023-02-22T04:48:46;10.33;;;9.23;;
11498;SDS011;5806;48.748;9.278;2023-02-22T04:51:13;11.10;;;9.90;;
11498;SDS011;5806;48.748;9.278;2023-02-22T04:53:40;10.17;;;8.93;;
11498;SDS011;5806;48.748;9.278;2023-02-22T04:56:06;10.70;;;8.60;;
11498;SDS011;5806;48.748;9.278;2023-02-22T04:58:33;10.33;;;9.27;;
11498;SDS011;5806;48.748;9.278;2023-02-22T05:00:59;10.07;;;9.00;;
11498;SDS011;5806;48.748;9.278;2023-02-22T05:03:26;11.10;;;9.47;;
11498;SDS011;5806;48.748;9.278;2023-02-22T05:05:52;10.67;;;9.40;;
11498;SDS011;5806;48.748;9.278;2023-02-22T05:08:19;9.90;;;8.90;;
11498;SDS011;5806;48.748;9.278;2023-02-22T05:10:45;9.87;;;8.83;;
11498;SDS011;5806;48.748;9.278;2023-02-22T05:13:12;9.77;;;8.57;;
11498;SDS011;5806;48.748;9.278;2023-02-22T05:15:38;10.47;;;9.20;;
11498;SDS011;5806;48.748;9.278;2023-02-22T05:18:05;10.07;;;9.07;;
11498;SDS011;5806;48.748;9.278;2023-02-22T05:20:32;10.47;;;9.37;;
11498;SDS011;5806;48.748;9.278;2023-02-22T05:23:00;12.93;;;10.67;;
11498;SDS011;5806;48.748;9.278;2023-02-22T05:25:26;11.03;;;9.83;;
11498;SDS011;5806;48.748;9.278;2023-02-22T05:27:54;10.63;;;9.23;;
11498;SDS011;5806;48.748;9.278;2023-02-22T05:30:24;9.20;;;8.10;;
11498;SDS011;5806;48.748;9.278;2023-02-22T05:32:50;10.73;;;8.03;;
11498;SDS011;5806;48.748;9.278;2023-02-22T05:35:17;9.73;;;8.10;;
11498;SDS011;5806;48.748;9.278;2023-02-22T05:37:43;9.40;;;8.40;;
11498;SDS011;5806;48.748;9.278;2023-02-22T05:40:10;8.83;;;7.93;;
11498;SDS011;5806;48.748;9.278;2023-02-22T05:42:43;10.03;;;8.17;;
11498;SDS011;5806;48.748;9.278;2023-02-22T05:45:07;8.40;;;7.60;;
11498;SDS011;5806;48.748;9.278;2023-02-22T05:47:34;10.10;;;8.20;;
11498;SDS011;5806;48.748;9.278;2023-02-22T05:50:00;8.37;;;7.53;;
11498;SDS011;5806;48.748;9.278;2023-02-22T05:52:27;8.87;;;7.97;;
11498;SDS011;5806;48.748;9.278;2023-02-22T05:54:53;8.83;;;7.90;;
11498;SDS011;5806;48.748;9.278;2023-02-22T05:57:20;8.50;;;7.57;;
11498;SDS011;5806;48.748;9.278;2023-02-22T05:59:46;8.00;;;7.20;;
11498;SDS011;5806;48.748;9.278;2023-02-22T06:02:13;9.20;;;6.97;;
11498;SDS011;5806;48.748;9.278;2023-02-22T06:04:39;8.70;;;7.80;;
11498;SDS011;5806;48.748;9.278;2023-02-22T06:07:07;9.07;;;8.10;;
11498;SDS011;5806;48.748;9.278;2023-02-22T06:09:34;8.73;;;7.73;;
11498;SDS011;5806;48.748;9.278;2023-02-22T06:12:00;8.90;;;8.00;;
11498;SDS011;5806;48.748;9.278;2023-02-22T06:14:27;8.03;;;7.23;;
11498;SDS011;5806;48.748;9.278;2023-02-22T06:16:53;7.80;;;7.00;;
11498;SDS011;5806;48.748;9.278;2023-02-22T06:19:20;8.50;;;7.67;;
11498;SDS011;5806;48.748;9.278;2023-02-22T06:21:50;8.57;;;7.73;;
11498;SDS011;5806;48.748;9.278;2023-02-22T06:24:17;8.20;;;7.20;;
11498;SDS011;5806;48.748;9.278;2023-02-22T06:26:43;10.07;;;8.07;;
11498;SDS011;5806;48.748;9.278;2023-02-22T06:29:10;9.33;;;7.83;;
11498;SDS011;5806;48.748;9.278;2023-02-22T06:31:36;8.57;;;7.50;;
11498;SDS011;5806;48.748;9.278;2023-02-22T06:34:03;9.30;;;8.30;;
11498;SDS011;5806;48.748;9.278;2023-02-22T06:36:30;9.60;;;8.50;;
11498;SDS011;5806;48.748;9.278;2023-02-22T06:38:56;10.37;;;8.70;;
11498;SDS011;5806;48.748;9.278;2023-02-22T06:41:23;10.60;;;8.70;;
11498;SDS011;5806;48.748;9.278;2023-02-22T06:43:49;11.00;;;8.83;;
11498;SDS011;5806;48.748;9.278;2023-02-22T06:46:16;9.80;;;8.47;;
11498;SDS011;5806;48.748;9.278;2023-02-22T06:48:43;10.67;;;8.97;;
11498;SDS011;5806;48.748;9.278;2023-02-22T06:51:10;10.30;;;9.07;;
11498;SDS011;5806;48.748;9.278;2023-02-22T06:53:36;10.90;;;8.77;;
11498;SDS011;5806;48.748;9.278;2023-02-22T06:56:03;9.50;;;8.17;;
11498;SDS011;5806;48.748;9.278;2023-02-22T06:58:30;11.03;;;9.07;;
11498;SDS011;5806;48.748;9.278;2023-02-22T07:00:56;9.90;;;8.47;;
11498;SDS011;5806;48.748;9.278;2023-02-22T07:03:23;10.40;;;8.80;;
11498;SDS011;5806;48.748;9.278;2023-02-22T07:05:49;11.20;;;8.60;;
11498;SDS011;5806;48.748;9.278;2023-02-22T07:08:16;10.70;;;8.77;;
11498;SDS011;5806;48.748;9.278;2023-02-22T07:10:42;11.90;;;9.07;;
11498;SDS011;5806;48.748;9.278;2023-02-22T07:13:09;9.83;;;8.70;;
11498;SDS011;5806;48.748;9.278;2023-02-22T07:15:35;9.83;;;8.83;;
11498;SDS011;5806;48.748;9.278;2023-02-22T07:18:02;11.37;;;9.13;;
11498;SDS011;5806;48.748;9.278;2023-02-22T07:20:29;9.67;;;8.63;;
11498;SDS011;5806;48.748;9.278;2023-02-22T07:22:56;9.53;;;8.53;;
11498;SDS011;5806;48.748;9.278;2023-02-22T07:25:22;10.50;;;8.73;;
11498;SDS011;5806;48.748;9.278;2023-02-22T07:27:49;12.37;;;9.07;;
11498;SDS011;5806;48.748;9.278;2023-02-22T07:30:23;11.80;;;9.07;;
11498;SDS011;5806;48.748;9.278;2023-02-22T07:32:45;11.97;;;9.20;;
11498;SDS011;5806;48.748;9.278;2023-02-22T07:35:16;12.20;;;9.53;;
11498;SDS011;5806;48.748;9.278;2023-02-22T07:37:42;12.20;;;9.70;;
11498;SDS011;5806;48.748;9.278;2023-02-22T07:40:10;13.43;;;10.10;;
11498;SDS011;5806;48.748;9.278;2023-02-22T07:42:52;12.30;;;9.80;;
11498;SDS011;5806;48.748;9.278;2023-02-22T07:45:20;12.83;;;10.37;;
11498;SDS011;5806;48.748;9.278;2023-02-22T07:47:47;15.60;;;11.07;;
11498;SDS011;5806;48.748;9.278;2023-02-22T07:50:14;16.53;;;12.33;;
11498;SDS011;5806;48.748;9.278;2023-02-22T07:52:45;18.23;;;12.43;;
11498;SDS011;5806;48.748;9.278;2023-02-22T07:55:12;18.00;;;12.80;;
11498;SDS011;5806;48.748;9.278;2023-02-22T07:57:39;17.40;;;11.87;;
11498;SDS011;5806;48.748;9.278;2023-02-22T08:00:06;15.67;;;11.87;;
11498;SDS011;5806;48.748;9.278;2023-02-22T08:02:33;15.50;;;10.90;;
11498;SDS011;5806;48.748;9.278;2023-02-22T08:04:59;13.77;;;11.37;;
11498;SDS011;5806;48.748;9.278;2023-02-22T08:07:26;16.87;;;11.07;;
11498;SDS011;5806;48.748;9.278;2023-02-22T08:09:52;16.07;;;11.87;;
11498;SDS011;5806;48.748;9.278;2023-02-22T08:12:19;16.60;;;12.20;;
11498;SDS011;5806;48.748;9.278;2023-02-22T08:14:45;13.83;;;11.47;;
11498;SDS011;5806;48.748;9.278;2023-02-22T08:17:12;15.33;;;11.77;;
11498;SDS011;5806;48.748;9.278;2023-02-22T08:19:38;16.63;;;10.53;;
11498;SDS011;5806;48.748;9.278;2023-02-22T08:22:05;13.17;;;10.80;;
11498;SDS011;5806;48.748;9.278;2023-02-22T08:24:31;15.43;;;11.93;;
11498;SDS011;5806;48.748;9.278;2023-02-22T08:26:58;14.70;;;10.27;;
11498;SDS011;5806;48.748;9.278;2023-02-22T08:29:24;13.67;;;10.50;;
11498;SDS011;5806;48.748;9.278;2023-02-22T08:31:52;15.87;;;10.83;;
11498;SDS011;5806;48.748;9.278;2023-02-22T08:34:19;13.97;;;11.10;;
11498;SDS011;5806;48.748;9.278;2023-02-22T08:36:45;13.87;;;10.80;;
11498;SDS011;5806;48.748;9.278;2023-02-22T08:39:12;13.03;;;10.77;;
11498;SDS011;5806;48.748;9.278;2023-02-22T08:41:38;14.90;;;11.23;;
11498;SDS011;5806;48.748;9.278;2023-02-22T08:44:05;15.20;;;11.43;;
11498;SDS011;5806;48.748;9.278;2023-02-22T08:46:31;13.73;;;11.30;;
11498;SDS011;5806;48.748;9.278;2023-02-22T08:48:58;19.83;;;12.83;;
11498;SDS011;5806;48.748;9.278;2023-02-22T08:51:25;15.10;;;12.37;;
11498;SDS011;5806;48.748;9.278;2023-02-22T08:53:52;19.60;;;14.07;;
11498;SDS011;5806;48.748;9.278;2023-02-22T08:56:19;16.73;;;13.37;;
11498;SDS011;5806;48.748;9.278;2023-02-22T08:58:47;18.03;;;13.60;;
11498;SDS011;5806;48.748;9.278;2023-02-22T09:01:14;19.37;;;14.57;;
11498;SDS011;5806;48.748;9.278;2023-02-22T09:03:40;18.33;;;14.17;;
11498;SDS011;5806;48.748;9.278;2023-02-22T09:06:07;20.07;;;15.77;;
11498;SDS011;5806;48.748;9.278;2023-02-22T09:08:33;21.40;;;14.93;;
11498;SDS011;5806;48.748;9.278;2023-02-22T09:11:00;22.93;;;16.93;;
11498;SDS011;5806;48.748;9.278;2023-02-22T09:13:26;23.53;;;16.50;;
11498;SDS011;5806;48.748;9.278;2023-02-22T09:15:53;25.50;;;17.40;;
11498;SDS011;5806;48.748;9.278;2023-02-22T09:18:19;27.80;;;17.67;;
11498;SDS011;5806;48.748;9.278;2023-02-22T09:20:46;24.17;;;17.20;;
11498;SDS011;5806;48.748;9.278;2023-02-22T09:23:12;25.67;;;16.03;;
11498;SDS011;5806;48.748;9.278;2023-02-22T09:25:39;28.23;;;17.57;;
11498;SDS011;5806;48.748;9.278;2023-02-22T09:28:05;23.97;;;16.17;;
11498;SDS011;5806;48.748;9.278;2023-02-22T09:30:33;24.07;;;14.60;;
11498;SDS011;5806;48.748;9.278;2023-02-22T09:33:00;21.37;;;14.63;;
11498;SDS011;5806;48.748;9.278;2023-02-22T09:35:27;22.73;;;15.40;;
11498;SDS011;5806;48.748;9.278;2023-02-22T09:37:59;24.13;;;14.40;;
11498;SDS011;5806;48.748;9.278;2023-02-22T09:40:22;19.90;;;13.90;;
11498;SDS011;5806;48.748;9.278;2023-02-22T09:43:00;19.23;;;13.47;;
11498;SDS011;5806;48.748;9.278;2023-02-22T09:45:27;19.77;;;13.40;;
11498;SDS011;5806;48.748;9.278;2023-02-22T09:47:52;20.53;;;13.90;;
11498;SDS011;5806;48.748;9.278;2023-02-22T09:50:21;21.30;;;13.77;;
11498;SDS011;5806;48.748;9.278;2023-02-22T09:52:55;18.07;;;12.93;;
11498;SDS011;5806;48.748;9.278;2023-02-22T09:55:25;21.67;;;13.33;;
11498;SDS011;5806;48.748;9.278;2023-02-22T09:57:52;19.07;;;13.10;;
11498;SDS011;5806;48.748;9.278;2023-02-22T10:00:20;20.20;;;14.53;;
11498;SDS011;5806;48.748;9.278;2023-02-22T10:05:23;18.63;;;12.30;;
11498;SDS011;5806;48.748;9.278;2023-02-22T10:07:58;20.07;;;12.10;;
11498;SDS011;5806;48.748;9.278;2023-02-22T10:10:27;15.13;;;11.60;;
11498;SDS011;5806;48.748;9.278;2023-02-22T10:13:12;17.00;;;11.23;;
11498;SDS011;5806;48.748;9.278;2023-02-22T10:21:01;17.17;;;10.83;;
11498;SDS011;5806;48.748;9.278;2023-02-22T10:26:16;18.70;;;11.77;;
11498;SDS011;5806;48.748;9.278;2023-02-22T10:28:52;16.73;;;10.47;;
11498;SDS011;5806;48.748;9.278;2023-02-22T10:31:12;16.00;;;9.97;;
11498;SDS011;5806;48.748;9.278;2023-02-22T10:33:40;17.73;;;11.47;;
11498;SDS011;5806;48.748;9.278;2023-02-22T10:36:20;18.43;;;11.40;;
11498;SDS011;5806;48.748;9.278;2023-02-22T10:38:55;15.50;;;10.77;;
11498;SDS011;5806;48.748;9.278;2023-02-22T10:41:33;18.23;;;10.53;;
11498;SDS011;5806;48.748;9.278;2023-02-22T10:44:00;17.23;;;10.00;;
11498;SDS011;5806;48.748;9.278;2023-02-22T10:46:28;16.20;;;10.00;;
11498;SDS011;5806;48.748;9.278;2023-02-22T10:48:56;31.17;;;11.50;;
11498;SDS011;5806;48.748;9.278;2023-02-22T10:51:24;14.30;;;9.53;;
11498;SDS011;5806;48.748;9.278;2023-02-22T10:53:58;15.27;;;9.73;;
11498;SDS011;5806;48.748;9.278;2023-02-22T10:56:25;13.97;;;9.73;;
11498;SDS011;5806;48.748;9.278;2023-02-22T10:58:57;13.47;;;9.57;;
11498;SDS011;5806;48.748;9.278;2023-02-22T11:04:11;12.30;;;9.20;;
11498;SDS011;5806;48.748;9.278;2023-02-22T11:06:39;13.23;;;8.53;;
11498;SDS011;5806;48.748;9.278;2023-02-22T11:11:38;12.23;;;8.03;;
11498;SDS011;5806;48.748;9.278;2023-02-22T11:14:06;11.53;;;8.27;;
11498;SDS011;5806;48.748;9.278;2023-02-22T11:16:39;12.00;;;7.53;;
11498;SDS011;5806;48.748;9.278;2023-02-22T11:21:33;10.17;;;7.20;;
11498;SDS011;5806;48.748;9.278;2023-02-22T11:24:01;11.00;;;6.70;;
11498;SDS011;5806;48.748;9.278;2023-02-22T11:26:28;9.40;;;6.57;;
11498;SDS011;5806;48.748;9.278;2023-02-22T11:28:56;9.37;;;6.27;;
11498;SDS011;5806;48.748;9.278;2023-02-22T11:31:26;8.83;;;6.70;;
11498;SDS011;5806;48.748;9.278;2023-02-22T11:33:56;10.33;;;5.90;;
11498;SDS011;5806;48.748;9.278;2023-02-22T11:36:31;9.13;;;6.53;;
11498;SDS011;5806;48.748;9.278;2023-02-22T11:38:58;11.23;;;6.60;;
11498;SDS011;5806;48.748;9.278;2023-02-22T11:41:30;11.77;;;6.73;;
11498;SDS011;5806;48.748;9.278;2023-02-22T11:43:53;8.90;;;6.10;;
11498;SDS011;5806;48.748;9.278;2023-02-22T11:46:23;9.07;;;5.73;;
11498;SDS011;5806;48.748;9.278;2023-02-22T11:48:55;8.10;;;5.80;;
11498;SDS011;5806;48.748;9.278;2023-02-22T11:51:26;9.63;;;6.43;;
11498;SDS011;5806;48.748;9.278;2023-02-22T11:54:08;10.63;;;5.03;;
11498;SDS011;5806;48.748;9.278;2023-02-22T11:56:38;10.93;;;5.77;;
11498;SDS011;5806;48.748;9.278;2023-02-22T12:01:57;7.97;;;5.47;;
11498;SDS011;5806;48.748;9.278;2023-02-22T12:25:41;9.47;;;5.60;;
11498;SDS011;5806;48.748;9.278;2023-02-22T12:28:15;9.47;;;6.13;;
11498;SDS011;5806;48.748;9.278;2023-02-22T12:30:39;7.70;;;6.10;;
11498;SDS011;5806;48.748;9.278;2023-02-22T12:33:17;9.33;;;6.37;;
11498;SDS011;5806;48.748;9.278;2023-02-22T12:35:41;10.23;;;6.33;;
11498;SDS011;5806;48.748;9.278;2023-02-22T12:41:15;9.43;;;5.77;;
11498;SDS011;5806;48.748;9.278;2023-02-22T12:43:50;11.47;;;6.70;;
11498;SDS011;5806;48.748;9.278;2023-02-22T12:54:04;10.53;;;6.00;;
11498;SDS011;5806;48.748;9.278;2023-02-22T13:01:45;9.70;;;6.07;;
11498;SDS011;5806;48.748;9.278;2023-02-22T13:04:12;9.13;;;6.03;;
11498;SDS011;5806;48.748;9.278;2023-02-22T13:06:43;8.23;;;5.70;;
11498;SDS011;5806;48.748;9.278;2023-02-22T13:11:56;10.17;;;6.47;;
11498;SDS011;5806;48.748;9.278;2023-02-22T13:19:41;7.97;;;6.47;;
11498;SDS011;5806;48.748;9.278;2023-02-22T13:22:08;11.33;;;6.43;;
11498;SDS011;5806;48.748;9.278;2023-02-22T13:29:43;9.30;;;6.50;;
11498;SDS011;5806;48.748;9.278;2023-02-22T13:40:20;25.57;;;8.70;;
11498;SDS011;5806;48.748;9.278;2023-02-22T13:43:06;14.67;;;7.33;;
11498;SDS011;5806;48.748;9.278;2023-02-22T13:48:06;9.53;;;6.47;;
11498;SDS011;5806;48.748;9.278;2023-02-22T13:53:16;9.83;;;6.03;;
11498;SDS011;5806;48.748;9.278;2023-02-22T13:55:44;7.83;;;6.30;;
11498;SDS011;5806;48.748;9.278;2023-02-22T13:58:11;10.40;;;6.43;;
11498;SDS011;5806;48.748;9.278;2023-02-22T14:00:42;7.53;;;5.53;;
11498;SDS011;5806;48.748;9.278;2023-02-22T14:16:27;10.50;;;6.17;;
11498;SDS011;5806;48.748;9.278;2023-02-22T14:21:31;7.50;;;5.70;;
11498;SDS011;5806;48.748;9.278;2023-02-22T14:24:13;9.63;;;6.23;;
11498;SDS011;5806;48.748;9.278;2023-02-22T14:26:52;8.13;;;6.37;;
11498;SDS011;5806;48.748;9.278;2023-02-22T14:29:15;10.53;;;5.80;;
11498;SDS011;5806;48.748;9.278;2023-02-22T14:34:11;9.30;;;6.53;;
11498;SDS011;5806;48.748;9.278;2023-02-22T14:36:53;7.70;;;5.90;;
11498;SDS011;5806;48.748;9.278;2023-02-22T14:39:21;8.13;;;6.07;;
11498;SDS011;5806;48.748;9.278;2023-02-22T14:41:58;8.53;;;6.07;;
11498;SDS011;5806;48.748;9.278;2023-02-22T14:44:15;9.27;;;6.30;;
11498;SDS011;5806;48.748;9.278;2023-02-22T14:46:44;9.73;;;6.23;;
11498;SDS011;5806;48.748;9.278;2023-02-22T14:49:13;9.80;;;6.37;;
11498;SDS011;5806;48.748;9.278;2023-02-22T14:51:43;9.20;;;5.87;;
11498;SDS011;5806;48.748;9.278;2023-02-22T14:54:22;9.63;;;5.73;;
11498;SDS011;5806;48.748;9.278;2023-02-22T14:57:33;8.10;;;5.53;;
11498;SDS011;5806;48.748;9.278;2023-02-22T14:59:21;8.67;;;5.20;;
11498;SDS011;5806;48.748;9.278;2023-02-22T15:01:56;8.67;;;5.33;;
11498;SDS011;5806;48.748;9.278;2023-02-22T15:04:24;8.77;;;6.10;;
11498;SDS011;5806;48.748;9.278;2023-02-22T15:06:52;8.60;;;5.90;;
11498;SDS011;5806;48.748;9.278;2023-02-22T15:09:20;9.93;;;5.97;;
11498;SDS011;5806;48.748;9.278;2023-02-22T15:11:50;10.87;;;6.47;;
11498;SDS011;5806;48.748;9.278;2023-02-22T15:14:21;8.17;;;5.63;;
11498;SDS011;5806;48.748;9.278;2023-02-22T15:16:49;11.33;;;5.57;;
11498;SDS011;5806;48.748;9.278;2023-02-22T15:19:17;6.90;;;5.90;;
11498;SDS011;5806;48.748;9.278;2023-02-22T15:21:45;8.90;;;5.63;;
11498;SDS011;5806;48.748;9.278;2023-02-22T15:24:18;9.63;;;6.20;;
11498;SDS011;5806;48.748;9.278;2023-02-22T15:26:43;8.07;;;6.17;;
11498;SDS011;5806;48.748;9.278;2023-02-22T15:29:14;10.53;;;6.27;;
11498;SDS011;5806;48.748;9.278;2023-02-22T15:31:41;10.50;;;5.87;;
11498;SDS011;5806;48.748;9.278;2023-02-22T15:34:20;8.77;;;5.53;;
11498;SDS011;5806;48.748;9.278;2023-02-22T15:36:52;9.20;;;5.70;;
11498;SDS011;5806;48.748;9.278;2023-02-22T15:39:26;9.77;;;5.40;;
11498;SDS011;5806;48.748;9.278;2023-02-22T15:42:07;8.47;;;5.53;;
11498;SDS011;5806;48.748;9.278;2023-02-22T15:44:35;8.77;;;5.97;;
11498;SDS011;5806;48.748;9.278;2023-02-22T15:47:01;10.93;;;6.33;;
11498;SDS011;5806;48.748;9.278;2023-02-22T15:49:28;9.07;;;6.17;;
11498;SDS011;5806;48.748;9.278;2023-02-22T15:52:13;9.20;;;5.40;;
11498;SDS011;5806;48.748;9.278;2023-02-22T15:54:37;9.97;;;5.50;;
11498;SDS011;5806;48.748;9.278;2023-02-22T15:57:04;7.63;;;5.33;;
11498;SDS011;5806;48.748;9.278;2023-02-22T15:59:31;7.03;;;5.03;;
11498;SDS011;5806;48.748;9.278;2023-02-22T16:01:59;8.33;;;5.07;;
11498;SDS011;5806;48.748;9.278;2023-02-22T16:04:26;6.43;;;4.20;;
11498;SDS011;5806;48.748;9.278;2023-02-22T16:07:10;8.90;;;4.93;;
11498;SDS011;5806;48.748;9.278;2023-02-22T16:09:32;7.80;;;4.90;;
11498;SDS011;5806;48.748;9.278;2023-02-22T16:12:09;6.03;;;4.47;;
11498;SDS011;5806;48.748;9.278;2023-02-22T16:14:28;7.30;;;4.60;;
11498;SDS011;5806;48.748;9.278;2023-02-22T16:19:40;6.90;;;4.33;;
11498;SDS011;5806;48.748;9.278;2023-02-22T16:24:52;5.77;;;3.97;;
11498;SDS011;5806;48.748;9.278;2023-02-22T16:27:20;5.77;;;3.80;;
11498;SDS011;5806;48.748;9.278;2023-02-22T16:30:00;6.37;;;4.07;;
11498;SDS011;5806;48.748;9.278;2023-02-22T16:32:27;8.00;;;3.67;;
11498;SDS011;5806;48.748;9.278;2023-02-22T16:34:54;5.67;;;3.90;;
11498;SDS011;5806;48.748;9.278;2023-02-22T16:37:21;6.57;;;3.97;;
11498;SDS011;5806;48.748;9.278;2023-02-22T16:39:48;8.70;;;4.33;;
11498;SDS011;5806;48.748;9.278;2023-02-22T16:42:16;8.17;;;4.67;;
11498;SDS011;5806;48.748;9.278;2023-02-22T16:44:47;6.70;;;3.93;;
11498;SDS011;5806;48.748;9.278;2023-02-22T16:47:15;8.10;;;4.37;;
11498;SDS011;5806;48.748;9.278;2023-02-22T16:49:41;8.17;;;4.20;;
11498;SDS011;5806;48.748;9.278;2023-02-22T16:52:08;5.97;;;3.83;;
11498;SDS011;5806;48.748;9.278;2023-02-22T16:54:35;4.23;;;3.50;;
11498;SDS011;5806;48.748;9.278;2023-02-22T16:57:02;6.40;;;3.80;;
11498;SDS011;5806;48.748;9.278;2023-02-22T16:59:30;5.43;;;3.50;;
11498;SDS011;5806;48.748;9.278;2023-02-22T17:01:57;5.87;;;4.33;;
11498;SDS011;5806;48.748;9.278;2023-02-22T17:04:24;5.57;;;3.60;;
11498;SDS011;5806;48.748;9.278;2023-02-22T17:06:53;4.00;;;3.23;;